| time (UTC) | temp C | wind direction | speed KPH | gust KPH | rain 1hr cm | rain 24hr cm | rain mn cm | humidity % | barometer mb |
| 20260904013244 | 13 | 197 | 6.4 | 16.1 | 0.00 | 0.00 | 0.00 | 49 | 731.4 |
| 20260904012744 | 13 | 183 | 8.0 | 14.5 | 0.00 | 0.00 | 0.00 | 50 | 731.4 |
| 20260904012245 | 13 | 189 | 8.0 | 14.5 | 0.00 | 0.00 | 0.00 | 50 | 731.4 |
| 20260904011748 | 14 | 194 | 8.0 | 22.5 | 0.00 | 0.00 | 0.00 | 48 | 731.4 |
| 20260904011244 | 14 | 180 | 11.3 | 17.7 | 0.00 | 0.00 | 0.00 | 47 | 731.4 |
| 20260904010744 | 14 | 189 | 8.0 | 16.1 | 0.00 | 0.00 | 0.00 | 49 | 731.4 |
| 20260904010248 | 15 | 185 | 8.0 | 16.1 | 0.00 | 0.00 | 0.00 | 50 | 731.4 |
| 20260904005744 | 15 | 189 | 6.4 | 17.7 | 0.00 | 0.00 | 0.00 | 49 | 731.4 |
| 20260904005244 | 14 | 178 | 8.0 | 19.3 | 0.00 | 0.00 | 0.00 | 51 | 731.4 |
| 20260904004745 | 15 | 211 | 9.7 | 19.3 | 0.00 | 0.00 | 0.00 | 48 | 731.4 |
| 20260904004245 | 15 | 189 | 9.7 | 16.1 | 0.00 | 0.00 | 0.00 | 48 | 731.4 |
| 20260904003747 | 15 | 203 | 8.0 | 17.7 | 0.00 | 0.00 | 0.00 | 48 | 731.4 |
| 20260904003245 | 15 | 191 | 8.0 | 20.9 | 0.00 | 0.00 | 0.00 | 47 | 731.4 |
| 20260904002744 | 15 | 199 | 8.0 | 17.7 | 0.00 | 0.00 | 0.00 | 47 | 731.4 |
| 20260904002248 | 15 | 200 | 8.0 | 19.3 | 0.00 | 0.00 | 0.00 | 47 | 731.4 |
| 20260904001744 | 15 | 202 | 11.3 | 24.1 | 0.00 | 0.00 | 0.00 | 47 | 731.4 |
| 20260904001244 | 15 | 206 | 8.0 | 17.7 | 0.00 | 0.00 | 0.00 | 45 | 731.4 |
| 20260904000744 | 15 | 218 | 6.4 | 25.7 | 0.00 | 0.00 | 0.00 | 45 | 731.4 |
| 20260904000244 | 15 | 204 | 8.0 | 24.1 | 0.00 | 0.00 | 0.00 | 47 | 731.4 |
| 20260903235747 | 15 | 195 | 9.7 | 22.5 | 0.00 | 0.00 | 0.00 | 47 | 731.4 |
| 20260903235244 | 16 | 215 | 4.8 | 16.1 | 0.00 | 0.00 | 0.00 | 47 | 731.4 |
| 20260903234744 | 15 | 202 | 3.2 | 24.1 | 0.00 | 0.00 | 0.00 | 45 | 731.4 |
| 20260903234245 | 15 | 184 | 14.5 | 29.0 | 0.00 | 0.00 | 0.00 | 45 | 731.4 |
| 20260903233747 | 16 | 189 | 11.3 | 20.9 | 0.00 | 0.00 | 0.00 | 47 | 731.4 |
| 20260903233245 | 15 | 202 | 6.4 | 24.1 | 0.00 | 0.00 | 0.00 | 47 | 731.4 |
| 20260903232745 | 15 | 188 | 14.5 | 24.1 | 0.00 | 0.00 | 0.00 | 50 | 731.4 |
| 20260903232248 | 16 | 188 | 11.3 | 22.5 | 0.00 | 0.00 | 0.00 | 48 | 731.4 |
| 20260903231748 | 16 | 204 | 9.7 | 24.1 | 0.00 | 0.00 | 0.00 | 49 | 731.8 |
| 20260903231248 | 16 | 203 | 9.7 | 24.1 | 0.00 | 0.00 | 0.00 | 48 | 731.4 |
| 20260903230751 | 16 | 201 | 11.3 | 22.5 | 0.00 | 0.00 | 0.00 | 48 | 731.8 |
| 20260903230245 | 16 | 210 | 8.0 | 24.1 | 0.00 | 0.00 | 0.00 | 49 | 731.8 |
| 20260903225744 | 16 | 200 | 12.9 | 27.4 | 0.00 | 0.00 | 0.00 | 49 | 731.8 |
| 20260903225244 | 16 | 210 | 8.0 | 33.8 | 0.00 | 0.00 | 0.00 | 53 | 731.8 |
| 20260903224748 | 16 | 191 | 19.3 | 32.2 | 0.00 | 0.00 | 0.00 | 57 | 731.8 |
| 20260903224247 | 16 | 195 | 17.7 | 35.4 | 0.00 | 0.00 | 0.00 | 57 | 731.8 |
| 20260903223747 | 16 | 186 | 19.3 | 29.0 | 0.00 | 0.00 | 0.00 | 57 | 731.8 |
| 20260903223247 | 15 | 197 | 12.9 | 37.0 | 0.00 | 0.00 | 0.00 | 56 | 731.8 |
| 20260903222745 | 15 | 193 | 17.7 | 37.0 | 0.00 | 0.00 | 0.00 | 58 | 731.8 |
| 20260903222244 | 16 | 201 | 16.1 | 32.2 | 0.00 | 0.00 | 0.00 | 59 | 731.8 |
| 20260903221744 | 16 | 198 | 12.9 | 33.8 | 0.00 | 0.00 | 0.00 | 58 | 731.8 |
| 20260903221250 | 16 | 189 | 17.7 | 30.6 | 0.00 | 0.00 | 0.00 | 57 | 732.1 |
| 20260903220747 | 16 | 190 | 17.7 | 37.0 | 0.00 | 0.00 | 0.00 | 51 | 732.1 |
| 20260903220244 | 16 | 199 | 14.5 | 30.6 | 0.00 | 0.00 | 0.00 | 56 | 732.1 |
| 20260903215744 | 16 | 195 | 17.7 | 35.4 | 0.00 | 0.00 | 0.00 | 52 | 732.1 |
| 20260903215244 | 16 | 192 | 14.5 | 27.4 | 0.00 | 0.00 | 0.00 | 52 | 732.1 |
| 20260903214745 | 16 | 208 | 12.9 | 37.0 | 0.00 | 0.00 | 0.00 | 50 | 732.1 |
| 20260903214245 | 16 | 222 | 8.0 | 37.0 | 0.00 | 0.00 | 0.00 | 52 | 732.1 |
| 20260903213744 | 16 | 196 | 19.3 | 33.8 | 0.00 | 0.00 | 0.00 | 50 | 732.1 |
| 20260903213245 | 16 | 210 | 11.3 | 24.1 | 0.00 | 0.00 | 0.00 | 50 | 732.1 |
| 20260903212745 | 16 | 207 | 8.0 | 25.7 | 0.00 | 0.00 | 0.00 | 47 | 732.1 |
| 20260903212244 | 16 | 188 | 11.3 | 29.0 | 0.00 | 0.00 | 0.00 | 48 | 732.1 |
| 20260903211747 | 16 | 185 | 16.1 | 37.0 | 0.00 | 0.00 | 0.00 | 49 | 732.1 |
| 20260903211250 | 16 | 195 | 16.1 | 29.0 | 0.00 | 0.00 | 0.00 | 48 | 732.1 |
| 20260903210744 | 16 | 182 | 16.1 | 38.6 | 0.00 | 0.00 | 0.00 | 49 | 732.1 |
| 20260903210250 | 16 | 193 | 17.7 | 37.0 | 0.00 | 0.00 | 0.00 | 49 | 732.1 |
| 20260903205744 | 15 | 199 | 9.7 | 30.6 | 0.00 | 0.00 | 0.00 | 50 | 732.5 |
| 20260903205244 | 16 | 195 | 17.7 | 35.4 | 0.00 | 0.00 | 0.00 | 48 | 732.1 |
| 20260903204745 | 16 | 200 | 16.1 | 29.0 | 0.00 | 0.00 | 0.00 | 48 | 732.1 |
| 20260903204244 | 16 | 190 | 17.7 | 32.2 | 0.00 | 0.00 | 0.00 | 50 | 732.5 |
| 20260903203744 | 15 | 203 | 11.3 | 37.0 | 0.00 | 0.00 | 0.00 | 50 | 732.5 |
| 20260903203246 | 16 | 189 | 22.5 | 37.0 | 0.00 | 0.00 | 0.00 | 50 | 732.1 |
| 20260903202748 | 15 | 196 | 14.5 | 41.8 | 0.00 | 0.00 | 0.00 | 50 | 732.5 |
| 20260903202244 | 15 | 186 | 24.1 | 41.8 | 0.00 | 0.00 | 0.00 | 50 | 732.1 |
| 20260903201749 | 15 | 189 | 24.1 | 35.4 | 0.00 | 0.00 | 0.00 | 50 | 732.1 |
| 20260903201245 | 15 | 190 | 16.1 | 35.4 | 0.00 | 0.00 | 0.00 | 50 | 732.5 |
| 20260903200747 | 16 | 197 | 14.5 | 33.8 | 0.00 | 0.00 | 0.00 | 49 | 732.5 |
| 20260903200244 | 16 | 186 | 16.1 | 33.8 | 0.00 | 0.00 | 0.00 | 47 | 732.5 |
| 20260903195744 | 16 | 186 | 17.7 | 35.4 | 0.00 | 0.00 | 0.00 | 47 | 732.5 |
| 20260903195248 | 16 | 186 | 17.7 | 35.4 | 0.00 | 0.00 | 0.00 | 49 | 732.5 |
| 20260903194750 | 15 | 194 | 14.5 | 45.1 | 0.00 | 0.00 | 0.00 | 50 | 732.5 |
| 20260903194244 | 16 | 194 | 17.7 | 37.0 | 0.00 | 0.00 | 0.00 | 49 | 732.5 |
| 20260903193744 | 16 | 190 | 14.5 | 30.6 | 0.00 | 0.00 | 0.00 | 47 | 732.5 |
| 20260903193247 | 15 | 188 | 16.1 | 37.0 | 0.00 | 0.00 | 0.00 | 48 | 732.5 |
| 20260903192747 | 15 | 190 | 19.3 | 37.0 | 0.00 | 0.00 | 0.00 | 50 | 732.8 |
| 20260903192244 | 15 | 186 | 17.7 | 33.8 | 0.00 | 0.00 | 0.00 | 50 | 732.8 |
| 20260903191744 | 15 | 187 | 20.9 | 40.2 | 0.00 | 0.00 | 0.00 | 51 | 732.5 |
| 20260903191250 | 15 | 189 | 20.9 | 40.2 | 0.00 | 0.00 | 0.00 | 51 | 732.8 |
| 20260903190748 | 15 | 181 | 19.3 | 43.5 | 0.00 | 0.00 | 0.00 | 51 | 732.8 |
| 20260903190248 | 15 | 187 | 19.3 | 45.1 | 0.00 | 0.00 | 0.00 | 52 | 732.8 |
| 20260903185744 | 15 | 190 | 11.3 | 40.2 | 0.00 | 0.00 | 0.00 | 51 | 732.8 |
| 20260903185247 | 15 | 191 | 20.9 | 38.6 | 0.00 | 0.00 | 0.00 | 50 | 732.8 |
| 20260903184744 | 15 | 188 | 22.5 | 40.2 | 0.00 | 0.00 | 0.00 | 50 | 732.5 |
| 20260903184244 | 15 | 191 | 22.5 | 40.2 | 0.00 | 0.00 | 0.00 | 52 | 732.8 |
| 20260903183744 | 15 | 185 | 19.3 | 40.2 | 0.00 | 0.00 | 0.00 | 51 | 732.8 |
| 20260903183248 | 15 | 197 | 22.5 | 38.6 | 0.00 | 0.00 | 0.00 | 51 | 732.8 |
| 20260903182750 | 14 | 183 | 17.7 | 40.2 | 0.00 | 0.00 | 0.00 | 50 | 732.8 |
| 20260903182245 | 15 | 190 | 22.5 | 40.2 | 0.00 | 0.00 | 0.00 | 49 | 732.8 |
| 20260903181747 | 15 | 191 | 19.3 | 45.1 | 0.00 | 0.00 | 0.00 | 50 | 732.8 |
| 20260903181244 | 15 | 191 | 19.3 | 33.8 | 0.00 | 0.00 | 0.00 | 50 | 733.1 |
| 20260903180744 | 15 | 197 | 20.9 | 37.0 | 0.00 | 0.00 | 0.00 | 51 | 733.1 |
| 20260903180247 | 14 | 190 | 22.5 | 41.8 | 0.00 | 0.00 | 0.00 | 49 | 733.1 |
| 20260903175745 | 15 | 185 | 22.5 | 35.4 | 0.00 | 0.00 | 0.00 | 51 | 732.8 |
| 20260903175244 | 15 | 187 | 19.3 | 40.2 | 0.00 | 0.00 | 0.00 | 51 | 732.8 |
| 20260903174745 | 15 | 186 | 17.7 | 33.8 | 0.00 | 0.00 | 0.00 | 52 | 732.8 |
| 20260903174247 | 14 | 189 | 17.7 | 35.4 | 0.00 | 0.00 | 0.00 | 53 | 732.8 |
| 20260903173744 | 14 | 189 | 17.7 | 38.6 | 0.00 | 0.00 | 0.00 | 52 | 732.8 |
| 20260903173244 | 14 | 183 | 20.9 | 37.0 | 0.00 | 0.00 | 0.00 | 52 | 732.8 |
| 20260903172745 | 14 | 184 | 19.3 | 40.2 | 0.00 | 0.00 | 0.00 | 56 | 732.8 |
| 20260903172247 | 14 | 196 | 17.7 | 33.8 | 0.00 | 0.00 | 0.00 | 56 | 732.8 |
| 20260903171744 | 13 | 188 | 20.9 | 41.8 | 0.00 | 0.00 | 0.00 | 57 | 732.8 |
| 20260903171244 | 13 | 187 | 25.7 | 43.5 | 0.00 | 0.00 | 0.00 | 58 | 732.5 |
| 20260903170744 | 13 | 192 | 24.1 | 38.6 | 0.00 | 0.00 | 0.00 | 61 | 732.5 |
| 20260903170245 | 13 | 193 | 22.5 | 46.7 | 0.00 | 0.00 | 0.00 | 61 | 732.5 |
| 20260903165745 | 13 | 191 | 24.1 | 48.3 | 0.00 | 0.00 | 0.00 | 62 | 732.5 |
| 20260903165247 | 13 | 190 | 22.5 | 43.5 | 0.00 | 0.00 | 0.00 | 63 | 732.5 |
| 20260903164747 | 13 | 190 | 25.7 | 49.9 | 0.00 | 0.00 | 0.00 | 64 | 732.1 |
| 20260903164244 | 13 | 189 | 27.4 | 49.9 | 0.00 | 0.00 | 0.00 | 67 | 732.5 |
| 20260903163744 | 12 | 193 | 20.9 | 40.2 | 0.00 | 0.00 | 0.00 | 68 | 732.5 |
| 20260903163245 | 12 | 197 | 22.5 | 41.8 | 0.00 | 0.00 | 0.00 | 69 | 732.5 |
| 20260903162747 | 12 | 189 | 25.7 | 41.8 | 0.00 | 0.00 | 0.00 | 69 | 732.5 |
| 20260903162245 | 12 | 206 | 16.1 | 38.6 | 0.00 | 0.00 | 0.00 | 69 | 732.1 |
| 20260903161751 | 12 | 189 | 22.5 | 41.8 | 0.00 | 0.00 | 0.00 | 69 | 732.5 |
| 20260903161252 | 12 | 186 | 17.7 | 37.0 | 0.00 | 0.00 | 0.00 | 69 | 732.5 |
| 20260903160749 | 12 | 196 | 24.1 | 45.1 | 0.00 | 0.00 | 0.00 | 67 | 732.1 |
| 20260903160247 | 12 | 199 | 17.7 | 43.5 | 0.00 | 0.00 | 0.00 | 71 | 732.1 |
| 20260903155745 | 12 | 194 | 24.1 | 38.6 | 0.00 | 0.00 | 0.00 | 70 | 732.1 |
| 20260903155244 | 12 | 188 | 22.5 | 38.6 | 0.00 | 0.00 | 0.00 | 70 | 732.5 |
| 20260903154750 | 12 | 195 | 20.9 | 40.2 | 0.00 | 0.00 | 0.00 | 72 | 732.1 |
| 20260903154244 | 12 | 198 | 20.9 | 45.1 | 0.00 | 0.00 | 0.00 | 72 | 732.1 |
| 20260903153744 | 12 | 199 | 19.3 | 38.6 | 0.00 | 0.00 | 0.00 | 73 | 732.5 |
| 20260903153247 | 12 | 190 | 22.5 | 38.6 | 0.00 | 0.00 | 0.00 | 73 | 732.1 |
| 20260903152750 | 12 | 191 | 22.5 | 41.8 | 0.00 | 0.00 | 0.00 | 73 | 732.1 |
| 20260903152244 | 11 | 193 | 22.5 | 37.0 | 0.00 | 0.00 | 0.00 | 73 | 732.1 |
| 20260903151744 | 11 | 190 | 20.9 | 37.0 | 0.00 | 0.00 | 0.00 | 76 | 732.5 |
| 20260903151244 | 11 | 190 | 17.7 | 32.2 | 0.00 | 0.00 | 0.00 | 76 | 732.1 |
| 20260903150747 | 11 | 188 | 20.9 | 37.0 | 0.00 | 0.00 | 0.00 | 76 | 732.1 |
| 20260903150247 | 11 | 192 | 22.5 | 40.2 | 0.00 | 0.00 | 0.00 | 82 | 732.1 |
| 20260903145744 | 11 | 189 | 22.5 | 40.2 | 0.00 | 0.00 | 0.00 | 87 | 732.1 |
| 20260903145245 | 10 | 187 | 24.1 | 35.4 | 0.00 | 0.00 | 0.00 | 87 | 732.1 |
| 20260903144747 | 10 | 189 | 22.5 | 35.4 | 0.00 | 0.00 | 0.00 | 88 | 732.1 |
| 20260903144244 | 10 | 192 | 24.1 | 38.6 | 0.00 | 0.00 | 0.00 | 87 | 732.1 |
| 20260903143744 | 10 | 193 | 24.1 | 40.2 | 0.00 | 0.00 | 0.00 | 88 | 732.1 |
| 20260903143244 | 10 | 188 | 27.4 | 40.2 | 0.00 | 0.00 | 0.00 | 89 | 731.8 |
| 20260903142744 | 10 | 191 | 25.7 | 40.2 | 0.00 | 0.00 | 0.00 | 90 | 731.8 |
| 20260903142247 | 9 | 189 | 25.7 | 43.5 | 0.00 | 0.00 | 0.00 | 90 | 731.8 |
| 20260903141744 | 9 | 191 | 25.7 | 49.9 | 0.00 | 0.00 | 0.00 | 90 | 731.8 |
| 20260903141249 | 9 | 193 | 25.7 | 40.2 | 0.00 | 0.00 | 0.00 | 90 | 731.8 |
| 20260903140753 | 9 | 192 | 25.7 | 38.6 | 0.00 | 0.00 | 0.00 | 91 | 731.8 |
| 20260903140244 | 9 | 196 | 25.7 | 41.8 | 0.00 | 0.00 | 0.00 | 91 | 731.4 |
| 20260903135747 | 8 | 192 | 25.7 | 38.6 | 0.00 | 0.00 | 0.00 | 92 | 731.4 |
| 20260903135247 | 8 | 192 | 24.1 | 41.8 | 0.00 | 0.00 | 0.00 | 92 | 731.4 |
| 20260903134747 | 8 | 190 | 25.7 | 40.2 | 0.00 | 0.00 | 0.00 | 93 | 731.4 |
| 20260903134244 | 8 | 193 | 25.7 | 43.5 | 0.00 | 0.00 | 0.00 | 93 | 731.4 |
| 20260903133747 | 8 | 193 | 24.1 | 37.0 | 0.00 | 0.00 | 0.00 | 92 | 731.4 |
| 20260903133247 | 8 | 189 | 27.4 | 41.8 | 0.00 | 0.00 | 0.00 | 91 | 731.4 |
| 20260903132744 | 8 | 193 | 25.7 | 41.8 | 0.00 | 0.00 | 0.00 | 90 | 731.4 |
| 20260903132247 | 8 | 191 | 25.7 | 40.2 | 0.00 | 0.00 | 0.00 | 90 | 731.4 |
| 20260903131744 | 8 | 193 | 24.1 | 41.8 | 0.00 | 0.00 | 0.00 | 89 | 731.4 |
| 20260903131244 | 8 | 191 | 25.7 | 37.0 | 0.00 | 0.00 | 0.00 | 89 | 731.4 |
| 20260903130744 | 8 | 191 | 25.7 | 40.2 | 0.00 | 0.00 | 0.00 | 89 | 731.4 |
| 20260903130244 | 8 | 188 | 25.7 | 37.0 | 0.00 | 0.00 | 0.00 | 89 | 731.4 |
| 20260903125744 | 8 | 188 | 27.4 | 37.0 | 0.00 | 0.00 | 0.00 | 88 | 731.4 |
| 20260903125244 | 8 | 189 | 25.7 | 38.6 | 0.00 | 0.00 | 0.00 | 88 | 731.4 |
| 20260903124747 | 9 | 189 | 27.4 | 37.0 | 0.00 | 0.00 | 0.00 | 87 | 731.4 |
| 20260903124244 | 9 | 187 | 29.0 | 40.2 | 0.00 | 0.00 | 0.00 | 88 | 731.4 |
| 20260903123747 | 9 | 188 | 27.4 | 40.2 | 0.00 | 0.00 | 0.00 | 87 | 731.4 |
| 20260903123244 | 9 | 188 | 27.4 | 37.0 | 0.00 | 0.00 | 0.00 | 88 | 731.4 |
| 20260903122744 | 8 | 188 | 27.4 | 38.6 | 0.00 | 0.00 | 0.00 | 87 | 731.4 |
| 20260903122245 | 9 | 188 | 25.7 | 37.0 | 0.00 | 0.00 | 0.00 | 87 | 731.4 |
| 20260903121744 | 9 | 188 | 27.4 | 37.0 | 0.00 | 0.00 | 0.00 | 87 | 731.4 |
| 20260903121244 | 8 | 189 | 25.7 | 37.0 | 0.00 | 0.00 | 0.00 | 87 | 731.4 |
| 20260903120748 | 8 | 188 | 24.1 | 35.4 | 0.00 | 0.00 | 0.00 | 87 | 731.4 |
| 20260903120245 | 9 | 192 | 22.5 | 33.8 | 0.00 | 0.00 | 0.00 | 87 | 731.4 |
| 20260903115744 | 9 | 190 | 22.5 | 33.8 | 0.00 | 0.00 | 0.00 | 87 | 731.8 |
| 20260903115247 | 9 | 188 | 22.5 | 33.8 | 0.00 | 0.00 | 0.00 | 87 | 731.4 |
| 20260903114750 | 9 | 189 | 24.1 | 33.8 | 0.00 | 0.00 | 0.00 | 86 | 731.4 |
| 20260903114244 | 9 | 187 | 25.7 | 33.8 | 0.00 | 0.00 | 0.00 | 87 | 731.4 |
| 20260903113752 | 9 | 187 | 25.7 | 35.4 | 0.00 | 0.00 | 0.00 | 87 | 731.4 |
| 20260903113247 | 9 | 188 | 25.7 | 40.2 | 0.00 | 0.00 | 0.00 | 87 | 731.4 |
| 20260903112750 | 9 | 189 | 25.7 | 37.0 | 0.00 | 0.00 | 0.00 | 87 | 731.4 |
| 20260903112244 | 9 | 194 | 24.1 | 37.0 | 0.00 | 0.00 | 0.00 | 87 | 731.4 |
| 20260903111745 | 9 | 191 | 24.1 | 35.4 | 0.00 | 0.00 | 0.00 | 88 | 731.4 |
| 20260903111244 | 9 | 193 | 22.5 | 35.4 | 0.00 | 0.00 | 0.00 | 88 | 731.4 |
| 20260903110747 | 9 | 191 | 22.5 | 41.8 | 0.00 | 0.00 | 0.00 | 89 | 731.8 |
| 20260903110244 | 9 | 189 | 24.1 | 37.0 | 0.00 | 0.00 | 0.00 | 89 | 731.8 |
| 20260903105744 | 9 | 188 | 24.1 | 33.8 | 0.00 | 0.00 | 0.00 | 91 | 731.8 |
| 20260903105247 | 9 | 188 | 22.5 | 33.8 | 0.00 | 0.00 | 0.00 | 92 | 731.8 |
| 20260903104747 | 9 | 189 | 22.5 | 32.2 | 0.00 | 0.00 | 0.00 | 93 | 731.8 |
| 20260903104247 | 9 | 192 | 20.9 | 33.8 | 0.00 | 0.00 | 0.00 | 94 | 731.8 |
| 20260903103744 | 9 | 190 | 22.5 | 35.4 | 0.00 | 0.00 | 0.00 | 94 | 731.8 |
| 20260903103248 | 10 | 190 | 24.1 | 40.2 | 0.00 | 0.00 | 0.00 | 93 | 731.8 |
| 20260903102746 | 10 | 192 | 22.5 | 43.5 | 0.00 | 0.00 | 0.00 | 93 | 731.8 |
| 20260903102244 | 10 | 192 | 25.7 | 40.2 | 0.00 | 0.00 | 0.00 | 93 | 731.8 |
| 20260903101744 | 10 | 192 | 24.1 | 48.3 | 0.00 | 0.00 | 0.00 | 93 | 731.8 |
| 20260903101250 | 10 | 191 | 25.7 | 40.2 | 0.00 | 0.00 | 0.00 | 92 | 731.8 |
| 20260903100750 | 10 | 195 | 25.7 | 41.8 | 0.00 | 0.00 | 0.00 | 92 | 731.8 |
| 20260903100245 | 10 | 192 | 22.5 | 40.2 | 0.00 | 0.00 | 0.00 | 92 | 732.1 |
| 20260903095745 | 10 | 192 | 22.5 | 35.4 | 0.00 | 0.00 | 0.00 | 91 | 732.1 |
| 20260903095244 | 10 | 196 | 20.9 | 33.8 | 0.00 | 0.00 | 0.00 | 92 | 732.1 |
| 20260903094744 | 10 | 192 | 20.9 | 35.4 | 0.00 | 0.00 | 0.00 | 91 | 732.1 |
| 20260903094250 | 10 | 193 | 20.9 | 33.8 | 0.00 | 0.00 | 0.00 | 91 | 732.5 |
| 20260903093744 | 10 | 194 | 22.5 | 33.8 | 0.00 | 0.00 | 0.00 | 91 | 732.1 |
| 20260903093245 | 10 | 194 | 20.9 | 35.4 | 0.00 | 0.00 | 0.00 | 90 | 732.1 |
| 20260903092744 | 10 | 190 | 22.5 | 33.8 | 0.00 | 0.00 | 0.00 | 92 | 732.5 |
| 20260903092244 | 10 | 193 | 20.9 | 33.8 | 0.00 | 0.00 | 0.00 | 91 | 732.5 |
| 20260903091744 | 10 | 191 | 22.5 | 37.0 | 0.00 | 0.00 | 0.00 | 91 | 732.5 |
| 20260903091247 | 10 | 196 | 24.1 | 35.4 | 0.00 | 0.00 | 0.00 | 92 | 732.5 |
| 20260903090747 | 10 | 192 | 22.5 | 37.0 | 0.00 | 0.00 | 0.00 | 93 | 732.1 |
| 20260903090244 | 10 | 190 | 24.1 | 40.2 | 0.00 | 0.00 | 0.00 | 93 | 732.5 |
| 20260903085744 | 10 | 194 | 22.5 | 35.4 | 0.00 | 0.00 | 0.00 | 94 | 732.5 |
| 20260903085244 | 10 | 193 | 20.9 | 33.8 | 0.00 | 0.00 | 0.00 | 94 | 732.5 |
| 20260903084745 | 10 | 194 | 20.9 | 33.8 | 0.00 | 0.00 | 0.00 | 94 | 732.5 |
| 20260903084247 | 10 | 191 | 20.9 | 33.8 | 0.00 | 0.00 | 0.00 | 94 | 732.8 |
| 20260903083747 | 10 | 195 | 20.9 | 35.4 | 0.00 | 0.00 | 0.00 | 93 | 732.8 |
| 20260903083244 | 10 | 192 | 22.5 | 33.8 | 0.00 | 0.00 | 0.00 | 94 | 732.8 |
| 20260903082747 | 10 | 192 | 20.9 | 35.4 | 0.00 | 0.00 | 0.00 | 95 | 732.8 |
| 20260903082247 | 10 | 193 | 20.9 | 32.2 | 0.00 | 0.00 | 0.00 | 95 | 732.8 |
| 20260903081748 | 10 | 191 | 22.5 | 35.4 | 0.00 | 0.00 | 0.00 | 94 | 732.8 |
| 20260903081250 | 10 | 190 | 24.1 | 35.4 | 0.00 | 0.00 | 0.00 | 94 | 733.1 |
| 20260903080744 | 10 | 189 | 22.5 | 33.8 | 0.00 | 0.00 | 0.00 | 94 | 732.8 |
| 20260903080247 | 10 | 189 | 22.5 | 32.2 | 0.00 | 0.00 | 0.00 | 94 | 733.1 |
| 20260903075747 | 10 | 190 | 24.1 | 37.0 | 0.00 | 0.00 | 0.00 | 93 | 733.1 |
| 20260903075248 | 10 | 189 | 22.5 | 38.6 | 0.00 | 0.00 | 0.00 | 94 | 733.1 |
| 20260903074753 | 10 | 189 | 24.1 | 32.2 | 0.00 | 0.00 | 0.00 | 94 | 733.1 |
| 20260903074244 | 10 | 189 | 22.5 | 32.2 | 0.00 | 0.00 | 0.00 | 94 | 733.1 |
| 20260903073744 | 10 | 188 | 20.9 | 32.2 | 0.00 | 0.00 | 0.00 | 93 | 733.1 |
| 20260903073247 | 10 | 191 | 19.3 | 32.2 | 0.00 | 0.00 | 0.00 | 93 | 733.1 |
| 20260903072747 | 10 | 188 | 19.3 | 32.2 | 0.00 | 0.00 | 0.00 | 93 | 733.1 |
| 20260903072247 | 10 | 193 | 17.7 | 32.2 | 0.00 | 0.00 | 0.00 | 93 | 733.1 |
| 20260903071745 | 10 | 193 | 17.7 | 29.0 | 0.00 | 0.00 | 0.00 | 94 | 733.5 |
| 20260903071244 | 10 | 191 | 17.7 | 27.4 | 0.00 | 0.00 | 0.00 | 95 | 733.5 |
| 20260903070745 | 10 | 192 | 16.1 | 27.4 | 0.00 | 0.00 | 0.00 | 95 | 733.5 |
| 20260903070250 | 10 | 191 | 19.3 | 29.0 | 0.00 | 0.00 | 0.00 | 94 | 733.5 |
| 20260903065747 | 10 | 193 | 19.3 | 30.6 | 0.00 | 0.00 | 0.00 | 95 | 733.5 |
| 20260903065252 | 10 | 189 | 19.3 | 32.2 | 0.00 | 0.00 | 0.00 | 94 | 733.5 |
| 20260903064744 | 10 | 190 | 20.9 | 30.6 | 0.00 | 0.00 | 0.00 | 94 | 733.5 |
| 20260903064250 | 10 | 192 | 17.7 | 27.4 | 0.00 | 0.00 | 0.00 | 93 | 733.5 |
| 20260903063744 | 10 | 193 | 17.7 | 32.2 | 0.00 | 0.00 | 0.00 | 92 | 733.5 |
| 20260903063252 | 10 | 188 | 19.3 | 25.7 | 0.00 | 0.00 | 0.00 | 92 | 733.5 |
| 20260903062744 | 10 | 189 | 17.7 | 25.7 | 0.00 | 0.00 | 0.00 | 91 | 733.5 |
| 20260903062247 | 10 | 195 | 16.1 | 24.1 | 0.00 | 0.00 | 0.00 | 91 | 733.5 |
| 20260903061744 | 10 | 190 | 16.1 | 25.7 | 0.00 | 0.00 | 0.00 | 90 | 733.5 |
| 20260903061244 | 10 | 189 | 17.7 | 24.1 | 0.00 | 0.00 | 0.00 | 90 | 733.5 |
| 20260903060750 | 10 | 189 | 16.1 | 24.1 | 0.00 | 0.00 | 0.00 | 90 | 733.8 |
| 20260903060245 | 10 | 186 | 16.1 | 24.1 | 0.00 | 0.00 | 0.00 | 90 | 733.8 |
| 20260903055745 | 11 | 186 | 16.1 | 25.7 | 0.00 | 0.00 | 0.00 | 90 | 733.8 |
| 20260903055252 | 11 | 186 | 17.7 | 25.7 | 0.00 | 0.00 | 0.00 | 90 | 733.5 |
| 20260903054744 | 11 | 187 | 17.7 | 27.4 | 0.00 | 0.00 | 0.00 | 90 | 733.5 |
| 20260903054245 | 11 | 184 | 17.7 | 27.4 | 0.00 | 0.00 | 0.00 | 90 | 733.8 |
| 20260903053744 | 11 | 187 | 16.1 | 30.6 | 0.00 | 0.00 | 0.00 | 89 | 733.8 |
| 20260903053248 | 11 | 187 | 16.1 | 25.7 | 0.00 | 0.00 | 0.00 | 89 | 733.8 |
| 20260903052745 | 11 | 184 | 16.1 | 27.4 | 0.00 | 0.00 | 0.00 | 88 | 733.8 |
| 20260903052244 | 11 | 188 | 17.7 | 27.4 | 0.00 | 0.00 | 0.00 | 88 | 733.8 |
| 20260903051744 | 11 | 187 | 16.1 | 24.1 | 0.00 | 0.00 | 0.00 | 87 | 733.8 |
| 20260903051244 | 11 | 186 | 16.1 | 24.1 | 0.00 | 0.00 | 0.00 | 87 | 733.8 |
| 20260903050745 | 11 | 185 | 17.7 | 20.9 | 0.00 | 0.00 | 0.00 | 87 | 733.8 |
| 20260903050248 | 11 | 184 | 16.1 | 20.9 | 0.00 | 0.00 | 0.00 | 87 | 733.8 |
| 20260903045744 | 11 | 185 | 16.1 | 20.9 | 0.00 | 0.00 | 0.00 | 88 | 733.8 |
| 20260903045244 | 11 | 186 | 14.5 | 19.3 | 0.00 | 0.00 | 0.00 | 87 | 734.2 |
| 20260903044744 | 11 | 185 | 14.5 | 22.5 | 0.00 | 0.00 | 0.00 | 87 | 733.8 |
| 20260903044244 | 11 | 184 | 14.5 | 20.9 | 0.00 | 0.00 | 0.00 | 87 | 733.8 |
| 20260903043747 | 11 | 187 | 14.5 | 22.5 | 0.00 | 0.00 | 0.00 | 87 | 733.8 |
| 20260903043244 | 11 | 189 | 14.5 | 22.5 | 0.00 | 0.00 | 0.00 | 86 | 733.8 |
| 20260903042747 | 11 | 187 | 14.5 | 20.9 | 0.00 | 0.00 | 0.00 | 86 | 733.8 |
| 20260903042244 | 11 | 185 | 14.5 | 24.1 | 0.00 | 0.00 | 0.00 | 85 | 733.8 |
| 20260903041747 | 11 | 187 | 16.1 | 25.7 | 0.00 | 0.00 | 0.00 | 85 | 733.8 |
| 20260903041248 | 11 | 186 | 14.5 | 24.1 | 0.00 | 0.00 | 0.00 | 85 | 733.8 |
| 20260903040744 | 11 | 188 | 16.1 | 24.1 | 0.00 | 0.00 | 0.00 | 84 | 733.8 |
| 20260903040244 | 11 | 186 | 16.1 | 20.9 | 0.00 | 0.00 | 0.00 | 82 | 733.8 |
| 20260903035744 | 11 | 185 | 14.5 | 22.5 | 0.00 | 0.00 | 0.00 | 82 | 733.8 |
| 20260903035253 | 11 | 182 | 14.5 | 20.9 | 0.00 | 0.00 | 0.00 | 81 | 733.8 |
| 20260903034748 | 11 | 186 | 16.1 | 20.9 | 0.00 | 0.00 | 0.00 | 78 | 733.8 |
| 20260903034244 | 11 | 185 | 16.1 | 19.3 | 0.00 | 0.00 | 0.00 | 77 | 733.8 |
| 20260903033744 | 11 | 187 | 14.5 | 22.5 | 0.00 | 0.00 | 0.00 | 77 | 733.8 |
| 20260903033246 | 11 | 184 | 12.9 | 19.3 | 0.00 | 0.00 | 0.00 | 77 | 733.8 |
| 20260903032744 | 11 | 188 | 12.9 | 19.3 | 0.00 | 0.00 | 0.00 | 77 | 733.8 |
| 20260903032244 | 11 | 186 | 12.9 | 22.5 | 0.00 | 0.00 | 0.00 | 76 | 733.5 |
| 20260903031747 | 11 | 182 | 14.5 | 24.1 | 0.00 | 0.00 | 0.00 | 72 | 733.5 |
| 20260903031247 | 11 | 186 | 14.5 | 22.5 | 0.00 | 0.00 | 0.00 | 72 | 733.5 |
| 20260903030747 | 11 | 188 | 16.1 | 22.5 | 0.00 | 0.00 | 0.00 | 72 | 733.5 |
| 20260903030245 | 11 | 185 | 14.5 | 22.5 | 0.00 | 0.00 | 0.00 | 71 | 733.5 |
| 20260903025744 | 12 | 182 | 14.5 | 27.4 | 0.00 | 0.00 | 0.00 | 70 | 733.5 |
| 20260903025250 | 12 | 185 | 14.5 | 20.9 | 0.00 | 0.00 | 0.00 | 70 | 733.5 |
| 20260903024747 | 12 | 187 | 14.5 | 22.5 | 0.00 | 0.00 | 0.00 | 71 | 733.5 |
| 20260903024247 | 12 | 189 | 16.1 | 22.5 | 0.00 | 0.00 | 0.00 | 70 | 733.1 |
| 20260903023747 | 12 | 186 | 14.5 | 20.9 | 0.00 | 0.00 | 0.00 | 71 | 733.5 |
| 20260903023247 | 11 | 180 | 12.9 | 19.3 | 0.00 | 0.00 | 0.00 | 67 | 733.1 |
| 20260903022745 | 11 | 178 | 11.3 | 17.7 | 0.00 | 0.00 | 0.00 | 63 | 733.5 |
| 20260903022244 | 11 | 185 | 12.9 | 16.1 | 0.00 | 0.00 | 0.00 | 63 | 733.5 |
| 20260903021744 | 12 | 184 | 11.3 | 14.5 | 0.00 | 0.00 | 0.00 | 63 | 733.5 |
| 20260903021244 | 12 | 186 | 11.3 | 16.1 | 0.00 | 0.00 | 0.00 | 62 | 733.5 |
| 20260903020744 | 12 | 192 | 8.0 | 12.9 | 0.00 | 0.00 | 0.00 | 62 | 733.5 |
| 20260903020244 | 12 | 186 | 8.0 | 11.3 | 0.00 | 0.00 | 0.00 | 63 | 733.5 |
| 20260903015744 | 12 | 187 | 8.0 | 12.9 | 0.00 | 0.00 | 0.00 | 63 | 733.5 |
| 20260903015244 | 12 | 190 | 8.0 | 14.5 | 0.00 | 0.00 | 0.00 | 62 | 733.5 |
| 20260903014745 | 13 | 190 | 6.4 | 11.3 | 0.00 | 0.00 | 0.00 | 63 | 733.5 |
| 20260903014244 | 13 | 186 | 8.0 | 14.5 | 0.00 | 0.00 | 0.00 | 63 | 733.5 |
| 20260903013745 | 13 | 185 | 9.7 | 19.3 | 0.00 | 0.00 | 0.00 | 63 | 733.5 |